UIIIUNKL

Guest
Details From UIII - Irkutsk
To UNKL - YEMELYANOVO
Flight Number -
Tags decoded
Created
Modified
Stats Distance 489 nm / 906 km
Max Altitude 0 ft / 0 m
Waypoints 5
Social Downloads 1
Likes 0
Share VATSIM

Download

Looking for another format? Having issues loading an existing format? Contact us
Advertisement - Login to hide

Notes

Requested: UIII BD W176 SUKOR A817 RO B938 USOPA UNKL Unmatched points: W176 SUKOR A817 B938

Route

UIII BD RO USOPA UNKL

ID Type Via Altitude Latitude Longitude Leg Dist Tot Dist Heading (true) Name
O UIII APT - 0 ft / 0 m 52.26644˚ 104.39569˚ - 0 nm - Irkutsk
BD NDB - 0 ft / 0 m 52.44222˚ 103.19472˚ 45 nm 45 nm 284° / 283° RAZDOLYE NDB
RO NDB - 0 ft / 0 m 55.26500˚ 94.87750˚ 339 nm 384 nm 303° / 297° AGINSKOYE NDB
USOPA FIX - 0 ft / 0 m 56.26556˚ 92.87972˚ 90 nm 475 nm 312° / 311° -
O UNKL APT - 0 ft / 0 m 56.17295˚ 92.49328˚ 14 nm 489 nm 247° / 247° YEMELYANOVO

Altitude Profile

Advertisement - Login to hide

Weather


0- 5 10 15 20 25 30 35+ Temperature / ° C

Clouds and Precipitation
Forecast for 2017-12-12 06:00 UTC. Updated 2 hours ago

Ground ~20,000 ft ~40,000 ft Winds

UIII

Details ICAO UIII (IKT)
Name Irkutsk
Region Russia
Timezone Asia/Irkutsk (UTC+8.0)
Stats Elevation 1,675 ft / 511 m (AMSL)
Location 52.266437° 104.395694°
Runways 1
Magnetic Variation 3.761° W

METAR

UIII 120630Z VRB01MPS 5000 FU NSC M18/M23 Q1022 R30/810550 NOSIG RMK QFE722/0962

Decode

TAF

TAF UIII 120500Z 1206/1306 17003MPS 9999 NSC BECMG 1216/1218 30005MPS BKN011CB TEMPO 1216/1306 1100 SHSN FU

Decode

Departure Runways

ID Width Length Bearing (true) Bearing (mag) Surface Threshold Offset Overrun Length
12 148 ft / 45 m 10,408 ft / 3,172 m 113.68° 117.44° Concrete 1,312 ft / 400 m 266 ft / 81 m
30 148 ft / 45 m 10,408 ft / 3,172 m 293.72° 297.48° Concrete 1,178 ft / 359 m 1,316 ft / 401 m

UNKL

Details ICAO UNKL (KJA)
Name YEMELYANOVO
Region Russia
Timezone Asia/Krasnoyarsk (UTC+7.0)
Stats Elevation 942 ft / 287 m (AMSL)
Location 56.172946° 92.493276°
Runways 1
Magnetic Variation 4.123° E

METAR

UNKL 120630Z 00000MPS 4400 -SHSN BR SCT030CB M09/M10 Q1024 R29/490237 NOSIG RMK QFE743

Decode

TAF

TAF UNKL 120500Z 1206/1306 VRB01MPS 3500 -SHSN BR SCT010 BKN020CB TEMPO 1206/1212 0500 SHSN FZFG VV005 BECMG 1212/1213 5000 -SN BR SCT012 TEMPO 1213/1224 0700 -SN FZFG VV005 BECMG 1300/1301 27005MPS 9999 NSW TEMPO 1301/1306 3500 -SN SCT007

Decode

Destination Runways

ID Width Length Bearing (true) Bearing (mag) Surface Threshold Offset Overrun Length
11 197 ft / 60 m 12,113 ft / 3,692 m 113.16° 109.04° Asphalt 0 ft / 0 m 235 ft / 72 m
29 197 ft / 60 m 12,113 ft / 3,692 m 293.21° 289.09° Asphalt 0 ft / 0 m 215 ft / 66 m

Popular Alternatives